This is the latest recevied weather packets stored in our database for station/object OE5HMR-13. If no packets are shown the sender has not sent any weather packets the latest 10 day(s).
| Time | Temp. | Humidity | Pressure | Rain* | Wind** | Luminosity | Snow |
|---|---|---|---|---|---|---|---|
| 1777955131 | 8.89° C | 70% | 1009.1 hPa | 0 mm | - | - | - |
| 1777954527 | 8.33° C | 69% | 1009.1 hPa | 0 mm | - | - | - |
| 1777952775 | 8.33° C | 67% | 1009.1 hPa | 0 mm | - | - | - |
| 1777950335 | 8.89° C | 64% | 1009.1 hPa | 0 mm | - | - | - |
| 1777949124 | 10° C | 63% | 1009.2 hPa | - | - | - | - |
| 1777948529 | 10° C | 63% | 1010.2 hPa | - | - | - | - |
| 1777946726 | 11.11° C | 59% | 1010.2 hPa | - | - | - | - |
| 1777944652 | 11.67° C | 57% | 1010.2 hPa | - | - | - | - |
| 1777941034 | 12.78° C | 55% | 1010.2 hPa | - | - | - | - |
| 1777938635 | 13.33° C | 53% | 1011.3 hPa | - | - | - | - |
| 1777938031 | 13.33° C | 53% | 1011.3 hPa | - | - | - | - |
| 1777936827 | 13.33° C | 52% | 1011.3 hPa | - | - | - | - |
| 1777935340 | 13.33° C | 49% | 1011.3 hPa | - | - | - | - |
| 1777932344 | 12.78° C | 48% | 1012.4 hPa | 0 mm | - | - | - |
| 1777921566 | 17.22° C | 36% | 1011.3 hPa | 0 mm | - | - | - |
| 1777919152 | 18.33° C | 36% | 1011.3 hPa | 0 mm | - | - | - |
| 1777917354 | 19.44° C | 36% | 1011.3 hPa | 0 mm | - | - | - |
| 1777913744 | 22.22° C | 30% | 1012.4 hPa | 0 mm | - | - | - |
| 1777912537 | 23.33° C | 24% | 1012.4 hPa | 0 mm | - | - | - |
| 1777911934 | 23.89° C | 23% | 1012.4 hPa | 0 mm | - | - | - |
| 1777910155 | 24.44° C | 23% | 1012.4 hPa | 0 mm | - | - | - |
| 1777908347 | 24.44° C | 24% | 1012.4 hPa | 0 mm | - | - | - |
| 1777901738 | 25° C | 27% | 1013.4 hPa | 0 mm | - | - | - |
| 1777899357 | 25° C | 30% | 1014.5 hPa | 0 mm | - | - | - |
| 1777892134 | 23.33° C | 36% | - | 0 mm | - | - | - |
* Rain latest hour (hover to see other rain measurements)
** Current wind speed in m/s (hover to see current wind gust speed)